sensor_id;sensor_type;location;lat;lon;timestamp;pressure;altitude;pressure_sealevel;temperature;humidity
3434;BME280;1730;41.932;25.548;2023-08-17T00:01:43;99337.16;;;20.97;100.00
3434;BME280;1730;41.932;25.548;2023-08-17T00:04:08;99333.91;;;21.06;100.00
3434;BME280;1730;41.932;25.548;2023-08-17T00:06:34;99334.34;;;21.03;100.00
3434;BME280;1730;41.932;25.548;2023-08-17T00:08:59;99340.28;;;21.00;100.00
3434;BME280;1730;41.932;25.548;2023-08-17T00:11:25;99346.31;;;20.84;100.00
3434;BME280;1730;41.932;25.548;2023-08-17T00:13:50;99349.25;;;20.83;100.00
3434;BME280;1730;41.932;25.548;2023-08-17T00:16:16;99358.75;;;20.80;100.00
3434;BME280;1730;41.932;25.548;2023-08-17T00:18:42;99350.56;;;20.74;100.00
3434;BME280;1730;41.932;25.548;2023-08-17T00:21:08;99327.50;;;20.50;100.00
3434;BME280;1730;41.932;25.548;2023-08-17T00:23:34;99364.22;;;20.80;100.00
3434;BME280;1730;41.932;25.548;2023-08-17T00:25:59;99375.84;;;20.76;100.00
3434;BME280;1730;41.932;25.548;2023-08-17T00:28:25;99347.75;;;20.87;100.00
3434;BME280;1730;41.932;25.548;2023-08-17T00:30:51;99337.75;;;20.99;100.00
3434;BME280;1730;41.932;25.548;2023-08-17T00:33:16;99339.28;;;20.95;100.00
3434;BME280;1730;41.932;25.548;2023-08-17T00:35:42;99343.88;;;21.01;100.00
3434;BME280;1730;41.932;25.548;2023-08-17T00:38:08;99338.03;;;20.91;100.00
3434;BME280;1730;41.932;25.548;2023-08-17T00:40:34;99343.31;;;20.92;100.00
3434;BME280;1730;41.932;25.548;2023-08-17T00:43:00;99344.34;;;20.91;100.00
3434;BME280;1730;41.932;25.548;2023-08-17T00:45:26;99341.09;;;21.07;100.00
3434;BME280;1730;41.932;25.548;2023-08-17T00:47:55;99301.81;;;20.82;100.00
3434;BME280;1730;41.932;25.548;2023-08-17T00:50:22;99324.88;;;21.06;100.00
3434;BME280;1730;41.932;25.548;2023-08-17T00:52:48;99309.47;;;21.05;100.00
3434;BME280;1730;41.932;25.548;2023-08-17T00:55:13;99321.28;;;20.74;100.00
3434;BME280;1730;41.932;25.548;2023-08-17T00:57:40;99329.09;;;20.71;100.00
3434;BME280;1730;41.932;25.548;2023-08-17T01:00:08;99336.88;;;20.74;100.00
3434;BME280;1730;41.932;25.548;2023-08-17T01:02:34;99143.00;;;19.35;100.00
3434;BME280;1730;41.932;25.548;2023-08-17T01:05:00;99347.72;;;20.55;100.00
3434;BME280;1730;41.932;25.548;2023-08-17T01:07:26;99339.16;;;20.77;100.00
3434;BME280;1730;41.932;25.548;2023-08-17T01:09:51;99336.47;;;20.70;100.00
3434;BME280;1730;41.932;25.548;2023-08-17T01:12:24;99339.28;;;20.57;100.00
3434;BME280;1730;41.932;25.548;2023-08-17T01:15:15;99334.88;;;20.49;100.00
3434;BME280;1730;41.932;25.548;2023-08-17T01:17:47;99329.59;;;20.54;100.00
3434;BME280;1730;41.932;25.548;2023-08-17T01:20:16;99334.66;;;20.51;100.00
3434;BME280;1730;41.932;25.548;2023-08-17T01:22:45;99324.34;;;20.53;100.00
3434;BME280;1730;41.932;25.548;2023-08-17T01:25:12;99325.66;;;20.44;100.00
3434;BME280;1730;41.932;25.548;2023-08-17T01:27:41;99322.91;;;20.37;100.00
3434;BME280;1730;41.932;25.548;2023-08-17T01:30:09;99323.75;;;20.38;100.00
3434;BME280;1730;41.932;25.548;2023-08-17T01:33:08;99337.28;;;20.26;100.00
3434;BME280;1730;41.932;25.548;2023-08-17T01:38:39;99362.75;;;20.27;100.00
3434;BME280;1730;41.932;25.548;2023-08-17T01:41:06;99337.06;;;20.34;100.00
3434;BME280;1730;41.932;25.548;2023-08-17T01:43:41;99312.00;;;20.31;100.00
3434;BME280;1730;41.932;25.548;2023-08-17T01:46:15;99135.22;;;19.46;100.00
3434;BME280;1730;41.932;25.548;2023-08-17T01:48:45;99299.44;;;20.54;100.00
3434;BME280;1730;41.932;25.548;2023-08-17T01:51:17;99308.94;;;20.52;100.00
3434;BME280;1730;41.932;25.548;2023-08-17T01:53:45;99316.59;;;20.43;100.00
3434;BME280;1730;41.932;25.548;2023-08-17T01:56:10;99268.53;;;20.41;100.00
3434;BME280;1730;41.932;25.548;2023-08-17T01:58:36;99275.88;;;20.47;100.00
3434;BME280;1730;41.932;25.548;2023-08-17T02:01:02;99123.13;;;19.73;100.00
3434;BME280;1730;41.932;25.548;2023-08-17T02:03:27;99268.13;;;20.75;100.00
3434;BME280;1730;41.932;25.548;2023-08-17T02:05:57;99166.66;;;20.19;100.00
3434;BME280;1730;41.932;25.548;2023-08-17T02:08:23;99263.53;;;20.69;100.00
3434;BME280;1730;41.932;25.548;2023-08-17T02:10:48;99260.13;;;20.74;100.00
3434;BME280;1730;41.932;25.548;2023-08-17T02:13:15;99227.81;;;20.82;100.00
3434;BME280;1730;41.932;25.548;2023-08-17T02:15:40;99202.25;;;20.88;100.00
3434;BME280;1730;41.932;25.548;2023-08-17T02:18:06;99222.50;;;21.12;100.00
3434;BME280;1730;41.932;25.548;2023-08-17T02:20:32;99206.94;;;21.31;100.00
3434;BME280;1730;41.932;25.548;2023-08-17T02:22:57;99208.53;;;21.20;100.00
3434;BME280;1730;41.932;25.548;2023-08-17T02:25:23;99201.94;;;21.28;100.00
3434;BME280;1730;41.932;25.548;2023-08-17T02:27:49;99190.12;;;21.45;100.00
3434;BME280;1730;41.932;25.548;2023-08-17T02:30:14;99132.03;;;21.30;100.00
3434;BME280;1730;41.932;25.548;2023-08-17T02:32:40;99167.47;;;21.68;100.00
3434;BME280;1730;41.932;25.548;2023-08-17T02:35:06;99164.19;;;21.78;100.00
3434;BME280;1730;41.932;25.548;2023-08-17T02:37:31;99094.53;;;21.42;100.00
3434;BME280;1730;41.932;25.548;2023-08-17T02:39:58;99152.53;;;21.82;100.00
3434;BME280;1730;41.932;25.548;2023-08-17T02:42:23;99156.09;;;21.83;100.00
3434;BME280;1730;41.932;25.548;2023-08-17T02:44:49;99145.06;;;21.89;100.00
3434;BME280;1730;41.932;25.548;2023-08-17T02:47:14;99154.72;;;21.92;100.00
3434;BME280;1730;41.932;25.548;2023-08-17T02:49:41;99151.47;;;22.01;100.00
3434;BME280;1730;41.932;25.548;2023-08-17T02:52:07;99139.09;;;22.11;100.00
3434;BME280;1730;41.932;25.548;2023-08-17T02:54:33;99132.09;;;21.96;100.00
3434;BME280;1730;41.932;25.548;2023-08-17T02:56:59;99150.16;;;21.86;100.00
3434;BME280;1730;41.932;25.548;2023-08-17T02:59:25;99140.81;;;21.93;100.00
3434;BME280;1730;41.932;25.548;2023-08-17T03:01:51;99147.66;;;21.84;100.00
3434;BME280;1730;41.932;25.548;2023-08-17T03:04:16;99150.00;;;21.81;100.00
3434;BME280;1730;41.932;25.548;2023-08-17T03:06:41;99150.56;;;21.71;100.00
3434;BME280;1730;41.932;25.548;2023-08-17T03:09:07;99066.16;;;21.37;100.00
3434;BME280;1730;41.932;25.548;2023-08-17T03:11:33;99156.09;;;21.83;100.00
3434;BME280;1730;41.932;25.548;2023-08-17T03:13:58;99149.78;;;21.82;100.00
3434;BME280;1730;41.932;25.548;2023-08-17T03:16:27;99158.00;;;21.82;100.00
3434;BME280;1730;41.932;25.548;2023-08-17T03:18:53;98929.53;;;20.36;100.00
3434;BME280;1730;41.932;25.548;2023-08-17T03:21:19;99144.06;;;21.84;100.00
3434;BME280;1730;41.932;25.548;2023-08-17T03:23:45;99156.19;;;21.94;100.00
3434;BME280;1730;41.932;25.548;2023-08-17T03:26:10;99159.75;;;22.13;100.00
3434;BME280;1730;41.932;25.548;2023-08-17T03:28:36;99147.69;;;22.14;100.00
3434;BME280;1730;41.932;25.548;2023-08-17T03:31:02;99053.72;;;21.64;100.00
3434;BME280;1730;41.932;25.548;2023-08-17T03:33:28;99145.31;;;22.18;100.00
3434;BME280;1730;41.932;25.548;2023-08-17T03:35:54;98911.59;;;20.77;100.00
3434;BME280;1730;41.932;25.548;2023-08-17T03:38:19;98985.81;;;21.11;100.00
3434;BME280;1730;41.932;25.548;2023-08-17T03:40:47;99152.34;;;22.14;100.00
3434;BME280;1730;41.932;25.548;2023-08-17T03:43:13;99154.63;;;22.17;100.00
3434;BME280;1730;41.932;25.548;2023-08-17T03:45:41;99163.00;;;22.22;100.00
3434;BME280;1730;41.932;25.548;2023-08-17T03:48:06;99154.06;;;22.26;100.00
3434;BME280;1730;41.932;25.548;2023-08-17T03:50:33;99150.38;;;22.32;100.00
3434;BME280;1730;41.932;25.548;2023-08-17T03:52:59;99149.44;;;22.38;100.00
3434;BME280;1730;41.932;25.548;2023-08-17T03:55:25;99150.69;;;22.54;100.00
3434;BME280;1730;41.932;25.548;2023-08-17T03:57:50;99135.75;;;22.62;100.00
3434;BME280;1730;41.932;25.548;2023-08-17T04:00:16;99092.56;;;22.39;100.00
3434;BME280;1730;41.932;25.548;2023-08-17T04:02:42;99126.25;;;22.76;100.00
3434;BME280;1730;41.932;25.548;2023-08-17T04:05:08;99119.41;;;22.78;100.00
3434;BME280;1730;41.932;25.548;2023-08-17T04:07:35;99051.53;;;22.79;100.00
3434;BME280;1730;41.932;25.548;2023-08-17T04:10:01;99018.97;;;22.64;100.00
3434;BME280;1730;41.932;25.548;2023-08-17T04:12:26;99092.59;;;23.44;100.00
3434;BME280;1730;41.932;25.548;2023-08-17T04:14:52;99092.50;;;23.78;100.00
3434;BME280;1730;41.932;25.548;2023-08-17T04:17:17;99086.59;;;24.15;100.00
3434;BME280;1730;41.932;25.548;2023-08-17T04:19:43;99058.47;;;24.13;100.00
3434;BME280;1730;41.932;25.548;2023-08-17T04:22:08;99079.72;;;24.46;100.00
3434;BME280;1730;41.932;25.548;2023-08-17T04:24:35;98979.25;;;23.92;100.00
3434;BME280;1730;41.932;25.548;2023-08-17T04:27:00;98936.97;;;23.98;100.00
3434;BME280;1730;41.932;25.548;2023-08-17T04:29:26;99067.84;;;25.34;100.00
3434;BME280;1730;41.932;25.548;2023-08-17T04:31:51;99061.19;;;25.51;100.00
3434;BME280;1730;41.932;25.548;2023-08-17T04:34:17;99055.87;;;25.45;100.00
3434;BME280;1730;41.932;25.548;2023-08-17T04:36:42;99056.75;;;25.50;100.00
3434;BME280;1730;41.932;25.548;2023-08-17T04:39:09;99059.03;;;25.75;100.00
3434;BME280;1730;41.932;25.548;2023-08-17T04:41:34;99007.75;;;25.63;100.00
3434;BME280;1730;41.932;25.548;2023-08-17T04:44:00;99047.69;;;25.77;100.00
3434;BME280;1730;41.932;25.548;2023-08-17T04:46:26;99043.56;;;26.28;100.00
3434;BME280;1730;41.932;25.548;2023-08-17T04:48:52;99037.25;;;26.37;100.00
3434;BME280;1730;41.932;25.548;2023-08-17T04:51:18;99040.31;;;26.36;100.00
3434;BME280;1730;41.932;25.548;2023-08-17T04:53:44;99042.28;;;26.77;100.00
3434;BME280;1730;41.932;25.548;2023-08-17T04:56:10;99040.81;;;27.02;100.00
3434;BME280;1730;41.932;25.548;2023-08-17T04:58:36;99033.34;;;27.02;100.00
3434;BME280;1730;41.932;25.548;2023-08-17T05:01:01;98917.88;;;26.51;100.00
3434;BME280;1730;41.932;25.548;2023-08-17T05:03:26;99049.44;;;27.62;100.00
3434;BME280;1730;41.932;25.548;2023-08-17T05:05:52;99038.41;;;27.77;100.00
3434;BME280;1730;41.932;25.548;2023-08-17T05:08:18;99035.31;;;27.64;100.00
3434;BME280;1730;41.932;25.548;2023-08-17T05:10:44;99035.34;;;27.74;100.00
3434;BME280;1730;41.932;25.548;2023-08-17T05:13:09;99018.78;;;28.09;100.00
3434;BME280;1730;41.932;25.548;2023-08-17T05:15:35;99042.94;;;28.19;100.00
3434;BME280;1730;41.932;25.548;2023-08-17T05:18:00;99013.28;;;28.55;100.00
3434;BME280;1730;41.932;25.548;2023-08-17T05:20:26;99037.53;;;29.49;100.00
3434;BME280;1730;41.932;25.548;2023-08-17T05:22:51;99036.16;;;29.51;100.00
3434;BME280;1730;41.932;25.548;2023-08-17T05:25:16;99037.59;;;29.19;100.00
3434;BME280;1730;41.932;25.548;2023-08-17T05:27:42;99026.47;;;29.24;100.00
3434;BME280;1730;41.932;25.548;2023-08-17T05:30:08;98959.56;;;29.20;100.00
3434;BME280;1730;41.932;25.548;2023-08-17T05:32:33;99027.47;;;29.63;100.00
3434;BME280;1730;41.932;25.548;2023-08-17T05:34:59;98949.97;;;28.87;100.00
3434;BME280;1730;41.932;25.548;2023-08-17T05:37:24;98939.41;;;28.84;100.00
3434;BME280;1730;41.932;25.548;2023-08-17T05:39:50;99033.25;;;29.72;100.00
3434;BME280;1730;41.932;25.548;2023-08-17T05:42:15;99025.59;;;30.75;100.00
3434;BME280;1730;41.932;25.548;2023-08-17T05:44:41;99034.44;;;30.54;100.00
3434;BME280;1730;41.932;25.548;2023-08-17T05:47:06;98977.75;;;30.68;100.00
3434;BME280;1730;41.932;25.548;2023-08-17T05:49:32;99031.13;;;31.09;100.00
3434;BME280;1730;41.932;25.548;2023-08-17T05:51:57;99018.47;;;30.93;100.00
3434;BME280;1730;41.932;25.548;2023-08-17T05:54:24;99025.50;;;31.14;100.00
3434;BME280;1730;41.932;25.548;2023-08-17T05:56:50;99025.34;;;30.72;100.00
3434;BME280;1730;41.932;25.548;2023-08-17T05:59:15;99026.78;;;30.30;100.00
3434;BME280;1730;41.932;25.548;2023-08-17T06:01:41;99027.34;;;30.66;100.00
3434;BME280;1730;41.932;25.548;2023-08-17T06:04:06;99022.59;;;30.33;100.00
3434;BME280;1730;41.932;25.548;2023-08-17T06:06:33;98996.06;;;30.07;100.00
3434;BME280;1730;41.932;25.548;2023-08-17T06:08:59;99040.34;;;30.03;100.00
3434;BME280;1730;41.932;25.548;2023-08-17T06:11:25;99029.84;;;30.68;100.00
3434;BME280;1730;41.932;25.548;2023-08-17T06:13:51;99038.13;;;30.05;100.00
3434;BME280;1730;41.932;25.548;2023-08-17T06:16:16;99036.03;;;30.60;100.00
3434;BME280;1730;41.932;25.548;2023-08-17T06:18:41;99014.34;;;31.38;100.00
3434;BME280;1730;41.932;25.548;2023-08-17T06:21:08;99035.78;;;31.85;100.00
3434;BME280;1730;41.932;25.548;2023-08-17T06:23:33;99044.88;;;31.48;100.00
3434;BME280;1730;41.932;25.548;2023-08-17T06:26:00;99039.75;;;31.37;100.00
3434;BME280;1730;41.932;25.548;2023-08-17T06:28:26;99034.63;;;31.44;100.00
3434;BME280;1730;41.932;25.548;2023-08-17T06:30:52;99039.00;;;31.26;100.00
3434;BME280;1730;41.932;25.548;2023-08-17T06:33:19;99012.00;;;30.98;100.00
3434;BME280;1730;41.932;25.548;2023-08-17T06:35:44;99044.31;;;30.70;100.00
3434;BME280;1730;41.932;25.548;2023-08-17T06:38:10;99045.16;;;30.94;100.00
3434;BME280;1730;41.932;25.548;2023-08-17T06:40:35;99041.94;;;31.63;100.00
3434;BME280;1730;41.932;25.548;2023-08-17T06:43:01;99041.09;;;31.39;100.00
3434;BME280;1730;41.932;25.548;2023-08-17T06:45:26;99046.03;;;31.23;100.00
3434;BME280;1730;41.932;25.548;2023-08-17T06:47:52;99045.63;;;30.77;100.00
3434;BME280;1730;41.932;25.548;2023-08-17T06:50:19;99009.38;;;30.82;100.00
3434;BME280;1730;41.932;25.548;2023-08-17T06:52:44;99044.06;;;30.95;100.00
3434;BME280;1730;41.932;25.548;2023-08-17T06:55:10;98782.16;;;29.76;100.00
3434;BME280;1730;41.932;25.548;2023-08-17T06:57:36;99044.81;;;31.53;100.00
3434;BME280;1730;41.932;25.548;2023-08-17T07:00:02;99035.69;;;30.95;100.00
3434;BME280;1730;41.932;25.548;2023-08-17T07:02:31;99034.94;;;31.18;100.00
3434;BME280;1730;41.932;25.548;2023-08-17T07:04:56;99014.59;;;31.18;100.00
3434;BME280;1730;41.932;25.548;2023-08-17T07:07:22;99041.47;;;31.33;100.00
3434;BME280;1730;41.932;25.548;2023-08-17T07:09:47;99035.00;;;31.37;100.00
3434;BME280;1730;41.932;25.548;2023-08-17T07:12:12;99039.91;;;30.93;100.00
3434;BME280;1730;41.932;25.548;2023-08-17T07:14:38;99008.19;;;30.60;100.00
3434;BME280;1730;41.932;25.548;2023-08-17T07:17:04;99033.69;;;31.06;100.00
3434;BME280;1730;41.932;25.548;2023-08-17T07:19:30;99026.75;;;30.69;100.00
3434;BME280;1730;41.932;25.548;2023-08-17T07:21:55;99031.19;;;31.04;100.00
3434;BME280;1730;41.932;25.548;2023-08-17T07:24:21;99036.94;;;30.50;100.00
3434;BME280;1730;41.932;25.548;2023-08-17T07:26:46;99035.75;;;30.90;100.00
3434;BME280;1730;41.932;25.548;2023-08-17T07:29:12;99025.63;;;30.99;100.00
3434;BME280;1730;41.932;25.548;2023-08-17T07:31:38;99026.16;;;31.30;100.00
3434;BME280;1730;41.932;25.548;2023-08-17T07:34:05;99023.28;;;31.11;100.00
3434;BME280;1730;41.932;25.548;2023-08-17T07:36:31;99032.06;;;30.95;100.00
3434;BME280;1730;41.932;25.548;2023-08-17T07:38:57;99029.25;;;31.00;100.00
3434;BME280;1730;41.932;25.548;2023-08-17T07:41:23;99033.44;;;31.26;100.00
3434;BME280;1730;41.932;25.548;2023-08-17T07:43:48;99027.88;;;30.97;100.00
3434;BME280;1730;41.932;25.548;2023-08-17T07:46:14;98998.09;;;30.98;100.00
3434;BME280;1730;41.932;25.548;2023-08-17T07:48:39;99021.25;;;30.93;100.00
3434;BME280;1730;41.932;25.548;2023-08-17T07:51:05;99037.81;;;30.79;100.00
3434;BME280;1730;41.932;25.548;2023-08-17T07:53:30;99022.78;;;31.09;100.00
3434;BME280;1730;41.932;25.548;2023-08-17T07:55:56;99027.69;;;30.88;100.00
3434;BME280;1730;41.932;25.548;2023-08-17T07:58:21;99017.25;;;30.75;100.00
3434;BME280;1730;41.932;25.548;2023-08-17T08:00:47;99018.37;;;31.03;100.00
3434;BME280;1730;41.932;25.548;2023-08-17T08:03:14;98994.44;;;30.45;100.00
3434;BME280;1730;41.932;25.548;2023-08-17T08:05:39;99030.22;;;30.85;100.00
3434;BME280;1730;41.932;25.548;2023-08-17T08:08:05;99020.50;;;30.82;100.00
3434;BME280;1730;41.932;25.548;2023-08-17T08:10:31;99005.50;;;30.78;100.00
3434;BME280;1730;41.932;25.548;2023-08-17T08:12:56;98906.06;;;30.26;100.00
3434;BME280;1730;41.932;25.548;2023-08-17T08:15:22;98939.56;;;30.74;100.00
3434;BME280;1730;41.932;25.548;2023-08-17T08:17:47;99010.37;;;30.92;100.00
3434;BME280;1730;41.932;25.548;2023-08-17T08:20:13;99010.47;;;31.34;100.00
3434;BME280;1730;41.932;25.548;2023-08-17T08:22:38;99002.63;;;30.60;100.00
3434;BME280;1730;41.932;25.548;2023-08-17T08:25:04;98998.56;;;31.05;100.00
3434;BME280;1730;41.932;25.548;2023-08-17T08:27:29;98999.66;;;31.09;100.00
3434;BME280;1730;41.932;25.548;2023-08-17T08:29:55;98980.13;;;31.33;100.00
3434;BME280;1730;41.932;25.548;2023-08-17T08:32:20;98983.94;;;31.18;98.75
3434;BME280;1730;41.932;25.548;2023-08-17T08:34:46;98990.62;;;31.17;98.25
3434;BME280;1730;41.932;25.548;2023-08-17T08:37:11;98993.91;;;31.24;97.85
3434;BME280;1730;41.932;25.548;2023-08-17T08:39:51;98990.22;;;31.28;95.30
3434;BME280;1730;41.932;25.548;2023-08-17T08:42:21;98989.03;;;31.35;92.08
3434;BME280;1730;41.932;25.548;2023-08-17T08:44:46;98988.34;;;31.43;90.54
3434;BME280;1730;41.932;25.548;2023-08-17T08:47:13;98970.28;;;31.16;86.93
3434;BME280;1730;41.932;25.548;2023-08-17T08:49:39;98986.00;;;31.31;83.71
3434;BME280;1730;41.932;25.548;2023-08-17T08:52:12;98977.34;;;31.75;83.22
3434;BME280;1730;41.932;25.548;2023-08-17T08:54:39;98976.28;;;32.08;82.96
3434;BME280;1730;41.932;25.548;2023-08-17T08:57:12;98984.56;;;32.32;74.82
3434;BME280;1730;41.932;25.548;2023-08-17T08:59:39;98984.75;;;31.85;74.60
3434;BME280;1730;41.932;25.548;2023-08-17T09:02:12;98973.66;;;31.98;73.86
3434;BME280;1730;41.932;25.548;2023-08-17T09:04:39;98964.97;;;32.00;70.09
3434;BME280;1730;41.932;25.548;2023-08-17T09:07:05;98930.84;;;31.70;66.29
3434;BME280;1730;41.932;25.548;2023-08-17T09:09:31;98969.72;;;32.18;70.33
3434;BME280;1730;41.932;25.548;2023-08-17T09:11:57;98966.22;;;32.45;64.60
3434;BME280;1730;41.932;25.548;2023-08-17T09:14:23;98914.88;;;32.08;66.19
3434;BME280;1730;41.932;25.548;2023-08-17T09:16:48;98886.84;;;32.00;64.12
3434;BME280;1730;41.932;25.548;2023-08-17T09:19:14;98957.31;;;32.43;64.55
3434;BME280;1730;41.932;25.548;2023-08-17T09:21:40;98957.31;;;32.43;60.70
3434;BME280;1730;41.932;25.548;2023-08-17T09:24:06;98953.34;;;32.62;63.44
3434;BME280;1730;41.932;25.548;2023-08-17T09:26:32;98956.19;;;32.57;60.45
3434;BME280;1730;41.932;25.548;2023-08-17T09:28:59;98959.91;;;32.85;58.79
3434;BME280;1730;41.932;25.548;2023-08-17T09:31:25;98957.53;;;32.46;56.38
3434;BME280;1730;41.932;25.548;2023-08-17T09:33:51;98954.72;;;32.79;55.84
3434;BME280;1730;41.932;25.548;2023-08-17T09:36:26;98952.84;;;32.88;57.24
3434;BME280;1730;41.932;25.548;2023-08-17T09:38:56;98952.00;;;32.74;55.63
3434;BME280;1730;41.932;25.548;2023-08-17T09:41:22;98952.28;;;33.18;55.06
3434;BME280;1730;41.932;25.548;2023-08-17T09:43:48;98952.81;;;33.20;55.29
3434;BME280;1730;41.932;25.548;2023-08-17T09:46:14;98940.16;;;33.23;54.45
3434;BME280;1730;41.932;25.548;2023-08-17T09:48:43;98916.25;;;33.17;54.80
3434;BME280;1730;41.932;25.548;2023-08-17T09:51:09;98943.75;;;33.09;52.03
3434;BME280;1730;41.932;25.548;2023-08-17T09:53:35;98952.28;;;33.18;53.96
3434;BME280;1730;41.932;25.548;2023-08-17T09:56:05;98935.81;;;33.03;54.93
3434;BME280;1730;41.932;25.548;2023-08-17T09:58:32;98946.22;;;32.84;54.75
3434;BME280;1730;41.932;25.548;2023-08-17T10:00:58;98956.41;;;33.07;55.80
3434;BME280;1730;41.932;25.548;2023-08-17T10:03:29;98937.97;;;32.92;55.66
3434;BME280;1730;41.932;25.548;2023-08-17T10:06:09;98943.97;;;33.13;56.20
3434;BME280;1730;41.932;25.548;2023-08-17T10:08:43;98941.59;;;33.47;55.67
3434;BME280;1730;41.932;25.548;2023-08-17T10:11:12;98925.25;;;33.27;56.67
3434;BME280;1730;41.932;25.548;2023-08-17T10:14:13;98938.94;;;33.15;56.06
3434;BME280;1730;41.932;25.548;2023-08-17T10:16:45;98940.59;;;33.16;56.18
3434;BME280;1730;41.932;25.548;2023-08-17T10:19:21;98923.09;;;33.24;55.67
3434;BME280;1730;41.932;25.548;2023-08-17T10:24:21;98935.22;;;33.83;57.31
3434;BME280;1730;41.932;25.548;2023-08-17T10:26:49;98921.31;;;34.14;56.37
3434;BME280;1730;41.932;25.548;2023-08-17T10:29:15;98912.75;;;33.96;57.08
3434;BME280;1730;41.932;25.548;2023-08-17T10:31:44;98931.19;;;33.97;59.23
3434;BME280;1730;41.932;25.548;2023-08-17T10:34:11;98925.56;;;33.75;58.41
3434;BME280;1730;41.932;25.548;2023-08-17T10:36:36;98929.03;;;33.59;59.35
3434;BME280;1730;41.932;25.548;2023-08-17T10:39:25;98911.47;;;33.31;58.33
3434;BME280;1730;41.932;25.548;2023-08-17T10:41:52;98913.22;;;33.40;60.48
3434;BME280;1730;41.932;25.548;2023-08-17T10:50:36;98923.72;;;33.71;63.19
3434;BME280;1730;41.932;25.548;2023-08-17T10:52:37;98882.34;;;33.45;63.06
3434;BME280;1730;41.932;25.548;2023-08-17T10:55:07;98901.81;;;33.86;63.18
3434;BME280;1730;41.932;25.548;2023-08-17T10:57:38;98907.09;;;34.10;63.31
3434;BME280;1730;41.932;25.548;2023-08-17T11:00:20;98914.00;;;33.68;62.25
3434;BME280;1730;41.932;25.548;2023-08-17T11:03:03;98903.47;;;33.51;64.99
3434;BME280;1730;41.932;25.548;2023-08-17T11:05:50;98916.41;;;33.47;64.64
3434;BME280;1730;41.932;25.548;2023-08-17T11:08:32;98910.47;;;33.63;65.39
3434;BME280;1730;41.932;25.548;2023-08-17T11:11:02;98750.28;;;32.63;68.93
3434;BME280;1730;41.932;25.548;2023-08-17T11:13:29;98909.88;;;33.66;68.71
3434;BME280;1730;41.932;25.548;2023-08-17T11:15:57;98882.16;;;33.78;65.52
3434;BME280;1730;41.932;25.548;2023-08-17T11:18:23;98812.34;;;33.73;66.21
3434;BME280;1730;41.932;25.548;2023-08-17T11:20:50;98862.62;;;33.86;64.53
3434;BME280;1730;41.932;25.548;2023-08-17T11:23:15;98881.97;;;33.96;67.03
3434;BME280;1730;41.932;25.548;2023-08-17T11:25:42;98737.63;;;33.51;62.94
3434;BME280;1730;41.932;25.548;2023-08-17T11:28:08;98878.47;;;34.13;61.98
3434;BME280;1730;41.932;25.548;2023-08-17T11:30:35;98631.00;;;32.14;62.57
3434;BME280;1730;41.932;25.548;2023-08-17T11:33:05;98876.62;;;34.09;60.81
3434;BME280;1730;41.932;25.548;2023-08-17T11:35:31;98865.69;;;33.76;61.44
3434;BME280;1730;41.932;25.548;2023-08-17T11:37:56;98878.38;;;34.18;61.96
3434;BME280;1730;41.932;25.548;2023-08-17T11:40:22;98885.47;;;34.24;60.35
3434;BME280;1730;41.932;25.548;2023-08-17T11:42:49;98844.56;;;33.70;61.83
3434;BME280;1730;41.932;25.548;2023-08-17T11:45:15;98872.25;;;34.16;62.65
3434;BME280;1730;41.932;25.548;2023-08-17T11:47:42;98643.53;;;32.88;63.63
3434;BME280;1730;41.932;25.548;2023-08-17T11:50:12;98856.25;;;34.39;60.72
3434;BME280;1730;41.932;25.548;2023-08-17T11:52:38;98846.50;;;34.67;59.36
3434;BME280;1730;41.932;25.548;2023-08-17T11:55:07;98857.81;;;34.62;60.61
3434;BME280;1730;41.932;25.548;2023-08-17T11:57:35;98815.78;;;34.62;60.74
3434;BME280;1730;41.932;25.548;2023-08-17T12:00:02;98847.25;;;34.99;60.58
3434;BME280;1730;41.932;25.548;2023-08-17T12:02:29;98843.91;;;35.53;58.13
3434;BME280;1730;41.932;25.548;2023-08-17T12:05:03;98849.50;;;35.28;57.99
3434;BME280;1730;41.932;25.548;2023-08-17T12:07:31;98681.22;;;34.28;60.53
3434;BME280;1730;41.932;25.548;2023-08-17T12:09:56;98853.47;;;35.26;60.39
3434;BME280;1730;41.932;25.548;2023-08-17T12:12:22;98750.66;;;34.39;58.39
3434;BME280;1730;41.932;25.548;2023-08-17T12:14:48;98854.69;;;34.64;58.97
3434;BME280;1730;41.932;25.548;2023-08-17T12:17:18;98856.28;;;34.78;57.74
3434;BME280;1730;41.932;25.548;2023-08-17T12:19:48;98848.03;;;34.73;57.61
3434;BME280;1730;41.932;25.548;2023-08-17T12:22:13;98842.94;;;34.84;56.22
3434;BME280;1730;41.932;25.548;2023-08-17T12:24:39;98760.88;;;34.13;56.41
3434;BME280;1730;41.932;25.548;2023-08-17T12:27:07;98837.53;;;34.96;56.03
3434;BME280;1730;41.932;25.548;2023-08-17T12:29:33;98831.28;;;35.08;55.91
3434;BME280;1730;41.932;25.548;2023-08-17T12:32:01;98842.72;;;35.20;56.06
3434;BME280;1730;41.932;25.548;2023-08-17T12:34:27;98825.84;;;34.63;55.89
3434;BME280;1730;41.932;25.548;2023-08-17T12:36:52;98799.38;;;34.30;56.38
3434;BME280;1730;41.932;25.548;2023-08-17T12:39:18;98720.41;;;34.19;55.90
3434;BME280;1730;41.932;25.548;2023-08-17T12:41:43;98825.00;;;35.02;54.86
3434;BME280;1730;41.932;25.548;2023-08-17T12:44:09;98802.78;;;34.58;54.57
3434;BME280;1730;41.932;25.548;2023-08-17T12:46:39;98827.72;;;35.24;54.30
3434;BME280;1730;41.932;25.548;2023-08-17T12:49:05;98823.69;;;35.08;52.38
3434;BME280;1730;41.932;25.548;2023-08-17T12:51:31;98788.69;;;34.89;52.32
3434;BME280;1730;41.932;25.548;2023-08-17T12:53:56;98811.87;;;35.37;51.76
3434;BME280;1730;41.932;25.548;2023-08-17T12:56:22;98827.59;;;35.64;51.70
3434;BME280;1730;41.932;25.548;2023-08-17T12:58:47;98824.34;;;34.97;53.81
3434;BME280;1730;41.932;25.548;2023-08-17T13:01:13;98820.72;;;34.96;54.22
3434;BME280;1730;41.932;25.548;2023-08-17T13:03:39;98812.78;;;34.90;53.70
3434;BME280;1730;41.932;25.548;2023-08-17T13:06:05;98822.44;;;35.23;53.71
3434;BME280;1730;41.932;25.548;2023-08-17T13:08:30;98794.97;;;34.94;54.11
3434;BME280;1730;41.932;25.548;2023-08-17T13:11:02;98723.66;;;34.52;53.53
3434;BME280;1730;41.932;25.548;2023-08-17T13:13:34;98713.09;;;34.49;53.49
3434;BME280;1730;41.932;25.548;2023-08-17T13:15:59;98709.44;;;34.31;52.93